createdAt,value
2017-12-16T00:00:23.582Z,977.44
2017-12-16T00:01:23.572Z,977.40
2017-12-16T00:02:23.588Z,977.44
2017-12-16T00:03:23.504Z,977.41
2017-12-16T00:04:23.535Z,977.45
2017-12-16T00:05:23.622Z,977.48
2017-12-16T00:06:23.524Z,977.48
2017-12-16T00:07:23.428Z,977.51
2017-12-16T00:08:23.366Z,977.48
2017-12-16T00:09:23.412Z,977.53
2017-12-16T00:10:23.361Z,977.52
2017-12-16T00:11:23.341Z,977.47
2017-12-16T00:12:23.296Z,977.49
2017-12-16T00:13:23.289Z,977.49
2017-12-16T00:14:23.248Z,977.50
2017-12-16T00:15:23.792Z,977.51
2017-12-16T00:16:23.221Z,977.53
2017-12-16T00:17:23.172Z,977.52
2017-12-16T00:18:23.329Z,977.50
2017-12-16T00:19:23.164Z,977.52
2017-12-16T00:20:23.139Z,977.53
2017-12-16T00:21:23.071Z,977.57
2017-12-16T00:22:23.114Z,977.56
2017-12-16T00:23:23.015Z,977.58
2017-12-16T00:24:23.022Z,977.57
2017-12-16T00:25:23.067Z,977.56
2017-12-16T00:26:23.060Z,977.62
2017-12-16T00:27:22.949Z,977.61
2017-12-16T00:28:32.323Z,977.61
2017-12-16T00:30:16.869Z,977.63
2017-12-16T00:31:16.282Z,977.66
2017-12-16T00:32:16.662Z,977.62
2017-12-16T00:33:16.824Z,977.67
2017-12-16T00:44:32.275Z,977.62
2017-12-16T00:45:32.768Z,977.63
2017-12-16T00:46:32.110Z,977.64
2017-12-16T00:47:31.936Z,977.63
2017-12-16T00:48:32.288Z,977.64
2017-12-16T00:49:32.676Z,977.66
2017-12-16T00:50:32.412Z,977.65
2017-12-16T00:51:32.123Z,977.64
2017-12-16T00:52:31.695Z,977.63
2017-12-16T00:53:31.595Z,977.63
2017-12-16T00:54:31.657Z,977.64
2017-12-16T00:55:31.539Z,977.63
2017-12-16T00:56:31.653Z,977.69
2017-12-16T00:57:31.544Z,977.70
2017-12-16T00:58:31.461Z,977.70
2017-12-16T00:59:31.471Z,977.68
2017-12-16T01:00:31.445Z,977.71
2017-12-16T01:01:31.436Z,977.69
2017-12-16T01:02:31.432Z,977.77
2017-12-16T01:03:31.338Z,977.74
2017-12-16T01:04:31.407Z,977.74
2017-12-16T01:05:31.344Z,977.79
2017-12-16T01:06:31.366Z,977.75
2017-12-16T01:07:31.275Z,977.75
2017-12-16T01:08:31.242Z,977.77
2017-12-16T01:09:31.286Z,977.76
2017-12-16T01:10:31.240Z,977.78
2017-12-16T01:11:31.207Z,977.76
2017-12-16T01:12:31.138Z,977.77
2017-12-16T01:13:31.154Z,977.78
2017-12-16T01:14:31.118Z,977.78
2017-12-16T01:15:31.108Z,977.76
2017-12-16T01:16:31.115Z,977.77
2017-12-16T01:17:31.055Z,977.76
2017-12-16T01:18:31.000Z,977.78
2017-12-16T01:19:31.039Z,977.81
2017-12-16T01:20:30.954Z,977.81
2017-12-16T01:21:30.940Z,977.86
2017-12-16T01:22:30.947Z,977.87
2017-12-16T01:23:31.839Z,977.85
2017-12-16T01:24:30.864Z,977.86
2017-12-16T01:25:30.851Z,977.89
2017-12-16T01:26:30.840Z,977.89
2017-12-16T01:27:30.763Z,977.89
2017-12-16T01:28:30.782Z,977.86
2017-12-16T01:29:30.762Z,977.91
2017-12-16T01:30:30.714Z,977.89
2017-12-16T01:31:30.694Z,977.93
2017-12-16T01:32:30.687Z,977.87
2017-12-16T01:33:30.648Z,977.91
2017-12-16T01:34:31.325Z,977.92
2017-12-16T01:35:30.662Z,977.89
2017-12-16T01:36:30.574Z,977.90
2017-12-16T01:37:30.542Z,977.91
2017-12-16T01:38:30.549Z,977.90
2017-12-16T01:39:30.499Z,977.90
2017-12-16T01:40:30.474Z,977.92
2017-12-16T01:41:30.463Z,977.94
2017-12-16T01:42:30.508Z,977.95
2017-12-16T01:43:30.396Z,977.92
2017-12-16T01:44:30.417Z,977.92
2017-12-16T01:45:32.312Z,977.90
2017-12-16T01:46:30.329Z,977.94
2017-12-16T01:47:30.324Z,977.95
2017-12-16T01:48:30.252Z,977.97
2017-12-16T01:49:30.295Z,977.96
2017-12-16T01:50:30.208Z,977.96
2017-12-16T01:51:30.203Z,977.98
2017-12-16T01:52:30.165Z,978.01
2017-12-16T01:53:30.167Z,978.06
2017-12-16T01:54:30.139Z,978.04
2017-12-16T01:55:30.137Z,978.01
2017-12-16T01:56:30.081Z,978.08
2017-12-16T01:57:30.048Z,978.07
2017-12-16T01:58:30.008Z,978.12
2017-12-16T01:59:30.014Z,978.12
2017-12-16T02:00:30.091Z,978.11
2017-12-16T02:01:29.963Z,978.15
2017-12-16T02:02:29.956Z,978.15
2017-12-16T02:03:29.940Z,978.18
2017-12-16T02:04:29.899Z,978.19
2017-12-16T02:05:29.934Z,978.18
2017-12-16T02:06:29.813Z,978.20
2017-12-16T02:07:29.817Z,978.19
2017-12-16T02:08:29.791Z,978.24
2017-12-16T02:09:29.787Z,978.26
2017-12-16T02:10:29.730Z,978.30
2017-12-16T02:11:29.744Z,978.30
2017-12-16T02:12:29.689Z,978.29
2017-12-16T02:13:29.646Z,978.32
2017-12-16T02:14:29.690Z,978.33
2017-12-16T02:15:29.622Z,978.35
2017-12-16T02:16:29.603Z,978.36
2017-12-16T02:17:29.579Z,978.35
2017-12-16T02:18:29.547Z,978.37
2017-12-16T02:19:29.520Z,978.36
2017-12-16T02:20:29.514Z,978.41
2017-12-16T02:21:29.452Z,978.41
2017-12-16T02:22:29.458Z,978.42
2017-12-16T02:23:29.486Z,978.37
2017-12-16T02:24:29.384Z,978.41
2017-12-16T02:25:29.399Z,978.43
2017-12-16T02:26:29.373Z,978.44
2017-12-16T02:27:29.317Z,978.41
2017-12-16T02:28:29.386Z,978.45
2017-12-16T02:29:29.285Z,978.46
2017-12-16T02:30:29.257Z,978.46
2017-12-16T02:31:29.224Z,978.47
2017-12-16T02:32:29.238Z,978.47
2017-12-16T02:33:29.203Z,978.45
2017-12-16T02:34:29.197Z,978.51
2017-12-16T02:35:29.189Z,978.51
2017-12-16T02:36:29.834Z,978.51
2017-12-16T02:37:29.123Z,978.56
2017-12-16T02:38:29.105Z,978.57
2017-12-16T02:39:29.055Z,978.60
2017-12-16T02:40:29.058Z,978.60
2017-12-16T02:41:29.009Z,978.61
2017-12-16T02:42:29.051Z,978.63
2017-12-16T02:43:28.989Z,978.60
2017-12-16T02:44:28.941Z,978.58
2017-12-16T02:45:29.014Z,978.61
2017-12-16T02:46:28.975Z,978.63
2017-12-16T02:47:31.874Z,978.68
2017-12-16T02:48:28.865Z,978.67
2017-12-16T02:49:28.823Z,978.66
2017-12-16T02:50:28.946Z,978.74
2017-12-16T02:51:28.830Z,978.73
2017-12-16T02:52:28.707Z,978.76
2017-12-16T02:53:28.697Z,978.76
2017-12-16T02:54:28.670Z,978.71
2017-12-16T02:55:28.657Z,978.75
2017-12-16T02:56:28.676Z,978.76
2017-12-16T02:57:28.722Z,978.79
2017-12-16T02:58:28.607Z,978.76
2017-12-16T02:59:28.646Z,978.78
2017-12-16T03:00:28.555Z,978.78
2017-12-16T03:01:28.484Z,978.80
2017-12-16T03:02:28.644Z,978.78
2017-12-16T03:03:28.524Z,978.80
2017-12-16T03:04:28.524Z,978.79
2017-12-16T03:05:28.462Z,978.79
2017-12-16T03:06:28.420Z,978.83
2017-12-16T03:07:28.484Z,978.85
2017-12-16T03:08:28.398Z,978.83
2017-12-16T03:09:28.432Z,978.83
2017-12-16T03:10:28.284Z,978.84
2017-12-16T03:11:28.249Z,978.79
2017-12-16T03:12:28.251Z,978.82
2017-12-16T03:13:28.267Z,978.88
2017-12-16T03:14:28.263Z,978.87
2017-12-16T03:15:28.170Z,978.89
2017-12-16T03:16:28.131Z,978.92
2017-12-16T03:17:28.841Z,978.94
2017-12-16T03:18:28.112Z,978.95
2017-12-16T03:19:28.046Z,978.94
2017-12-16T03:20:28.006Z,978.97
2017-12-16T03:21:27.999Z,978.99
2017-12-16T03:22:28.041Z,979.03
2017-12-16T03:23:27.972Z,979.06
2017-12-16T03:24:27.930Z,979.01
2017-12-16T03:25:27.917Z,978.98
2017-12-16T03:26:27.905Z,979.01
2017-12-16T03:27:27.841Z,979.04
2017-12-16T03:28:27.839Z,979.03
2017-12-16T03:29:27.833Z,979.02
2017-12-16T03:30:27.764Z,979.02
2017-12-16T03:31:27.769Z,979.09
2017-12-16T03:32:27.791Z,979.05
2017-12-16T03:33:27.725Z,979.07
2017-12-16T03:34:27.673Z,979.07
2017-12-16T03:35:27.635Z,979.09
2017-12-16T03:36:27.702Z,979.10
2017-12-16T03:37:27.631Z,979.13
2017-12-16T03:38:27.606Z,979.08
2017-12-16T03:39:27.566Z,979.12
2017-12-16T03:40:27.514Z,979.10
2017-12-16T03:41:27.532Z,979.14
2017-12-16T03:42:27.482Z,979.15
2017-12-16T03:43:27.461Z,979.15
2017-12-16T03:44:27.462Z,979.15
2017-12-16T03:45:27.440Z,979.15
2017-12-16T03:46:28.348Z,979.17
2017-12-16T03:47:27.408Z,979.19
2017-12-16T03:48:27.381Z,979.17
2017-12-16T03:49:27.318Z,979.19
2017-12-16T03:50:27.321Z,979.17
2017-12-16T03:51:27.290Z,979.18
2017-12-16T03:52:27.262Z,979.21
2017-12-16T03:53:27.201Z,979.25
2017-12-16T03:54:27.200Z,979.29
2017-12-16T03:55:27.200Z,979.35
2017-12-16T03:56:27.156Z,979.39
2017-12-16T03:57:27.133Z,979.45
2017-12-16T03:58:27.112Z,979.47
2017-12-16T03:59:27.053Z,979.50
2017-12-16T04:00:27.029Z,979.55
2017-12-16T04:01:27.006Z,979.56
2017-12-16T04:02:26.991Z,979.56
2017-12-16T04:03:27.036Z,979.55
2017-12-16T04:04:26.960Z,979.51
2017-12-16T04:05:26.943Z,979.54
2017-12-16T04:06:26.882Z,979.54
2017-12-16T04:07:26.890Z,979.54
2017-12-16T04:08:26.838Z,979.54
2017-12-16T04:09:26.838Z,979.55
2017-12-16T04:10:26.800Z,979.57
2017-12-16T04:11:26.824Z,979.55
2017-12-16T04:12:26.782Z,979.52
2017-12-16T04:13:26.733Z,979.56
2017-12-16T04:14:26.732Z,979.58
2017-12-16T04:15:26.660Z,979.56
2017-12-16T04:16:26.668Z,979.54
2017-12-16T04:17:26.640Z,979.56
2017-12-16T04:18:26.655Z,979.59
2017-12-16T04:19:26.691Z,979.59
2017-12-16T04:20:26.567Z,979.63
2017-12-16T04:21:26.559Z,979.63
2017-12-16T04:22:26.497Z,979.65
2017-12-16T04:23:26.485Z,979.59
2017-12-16T04:24:26.480Z,979.62
2017-12-16T04:25:29.341Z,979.62
2017-12-16T04:26:26.479Z,979.60
2017-12-16T04:27:26.377Z,979.60
2017-12-16T04:28:26.377Z,979.58
2017-12-16T04:29:26.349Z,979.59
2017-12-16T04:30:26.318Z,979.62
2017-12-16T04:31:26.282Z,979.65
2017-12-16T04:32:26.273Z,979.64
2017-12-16T04:33:26.241Z,979.63
2017-12-16T04:34:26.241Z,979.60
2017-12-16T04:35:26.199Z,979.60
2017-12-16T04:36:26.845Z,979.65
2017-12-16T04:37:26.192Z,979.63
2017-12-16T04:38:26.169Z,979.64
2017-12-16T04:39:26.130Z,979.63
2017-12-16T04:40:26.074Z,979.66
2017-12-16T04:41:26.029Z,979.70
2017-12-16T04:42:26.032Z,979.67
2017-12-16T04:43:26.005Z,979.68
2017-12-16T04:44:26.031Z,979.69
2017-12-16T04:45:25.984Z,979.74
2017-12-16T04:46:25.935Z,979.72
2017-12-16T04:47:25.907Z,979.72
2017-12-16T04:48:25.919Z,979.73
2017-12-16T04:49:25.886Z,979.72
2017-12-16T04:50:25.813Z,979.76
2017-12-16T04:51:25.792Z,979.71
2017-12-16T04:52:25.822Z,979.72
2017-12-16T04:53:25.786Z,979.82
2017-12-16T04:54:25.716Z,979.82
2017-12-16T04:55:25.694Z,979.87
2017-12-16T04:56:25.763Z,979.87
2017-12-16T04:57:26.316Z,979.85
2017-12-16T04:58:25.641Z,979.88
2017-12-16T04:59:25.602Z,979.89
2017-12-16T05:00:25.571Z,979.92
2017-12-16T05:01:25.541Z,979.83
2017-12-16T05:02:25.545Z,979.91
2017-12-16T05:03:25.578Z,979.89
2017-12-16T05:04:25.521Z,979.90
2017-12-16T05:05:25.461Z,979.91
2017-12-16T05:06:25.526Z,979.90
2017-12-16T05:07:25.417Z,979.92
2017-12-16T05:08:25.433Z,979.90
2017-12-16T05:09:25.361Z,979.92
2017-12-16T05:10:25.340Z,979.91
2017-12-16T05:11:25.352Z,979.90
2017-12-16T05:12:25.300Z,979.96
2017-12-16T05:13:25.286Z,979.94
2017-12-16T05:14:25.233Z,979.91
2017-12-16T05:15:25.250Z,979.84
2017-12-16T05:16:25.225Z,979.90
2017-12-16T05:17:25.182Z,979.88
2017-12-16T05:18:25.171Z,979.93
2017-12-16T05:19:25.142Z,979.88
2017-12-16T05:20:25.107Z,979.86
2017-12-16T05:21:25.096Z,979.89
2017-12-16T05:22:25.051Z,979.90
2017-12-16T05:23:25.037Z,979.89
2017-12-16T05:24:24.975Z,979.94
2017-12-16T05:25:24.970Z,979.97
2017-12-16T05:26:24.957Z,979.97
2017-12-16T05:27:24.934Z,979.98
2017-12-16T05:28:24.891Z,979.98
2017-12-16T05:29:24.890Z,979.98
2017-12-16T05:30:24.864Z,979.97
2017-12-16T05:31:24.815Z,979.99
2017-12-16T05:32:24.795Z,980.00
2017-12-16T05:33:24.829Z,980.00
2017-12-16T05:34:24.811Z,980.02
2017-12-16T05:35:24.769Z,980.06
2017-12-16T05:36:24.722Z,980.04
2017-12-16T05:37:24.656Z,980.09
2017-12-16T05:38:24.660Z,980.08
2017-12-16T05:39:24.648Z,980.12
2017-12-16T05:40:24.657Z,980.16
2017-12-16T05:41:24.606Z,980.11
2017-12-16T05:42:24.554Z,980.14
2017-12-16T05:43:24.552Z,980.20
2017-12-16T05:44:24.563Z,980.14
2017-12-16T05:45:24.459Z,980.15
2017-12-16T05:46:24.492Z,980.17
2017-12-16T05:47:24.430Z,980.20
2017-12-16T05:48:24.445Z,980.22
2017-12-16T05:49:24.404Z,980.25
2017-12-16T05:50:24.390Z,980.24
2017-12-16T05:51:24.361Z,980.22
2017-12-16T05:52:24.324Z,980.24
2017-12-16T05:53:24.313Z,980.25
2017-12-16T05:54:24.308Z,980.28
2017-12-16T05:55:24.304Z,980.26
2017-12-16T05:56:24.258Z,980.29
2017-12-16T05:57:24.162Z,980.27
2017-12-16T05:58:24.214Z,980.30
2017-12-16T05:59:24.170Z,980.29
2017-12-16T06:00:24.162Z,980.29
2017-12-16T06:01:24.077Z,980.32
2017-12-16T06:02:24.088Z,980.32
2017-12-16T06:03:24.071Z,980.33
2017-12-16T06:04:24.017Z,980.34
2017-12-16T06:05:23.985Z,980.32
2017-12-16T06:06:23.973Z,980.34
2017-12-16T06:07:23.939Z,980.33
2017-12-16T06:08:23.911Z,980.31
2017-12-16T06:09:23.896Z,980.31
2017-12-16T06:10:23.884Z,980.31
2017-12-16T06:11:23.826Z,980.36
2017-12-16T06:12:23.877Z,980.37
2017-12-16T06:13:23.801Z,980.38
2017-12-16T06:14:23.759Z,980.37
2017-12-16T06:15:23.762Z,980.33
2017-12-16T06:16:23.753Z,980.36
2017-12-16T06:17:23.686Z,980.38
2017-12-16T06:18:23.708Z,980.40
2017-12-16T06:19:23.674Z,980.34
2017-12-16T06:20:23.642Z,980.42
2017-12-16T06:21:23.621Z,980.47
2017-12-16T06:22:23.614Z,980.47
2017-12-16T06:23:23.576Z,980.48
2017-12-16T06:24:23.519Z,980.49
2017-12-16T06:25:23.521Z,980.49
2017-12-16T06:26:23.463Z,980.47
2017-12-16T06:27:23.454Z,980.49
2017-12-16T06:28:23.441Z,980.46
2017-12-16T06:29:23.426Z,980.45
2017-12-16T06:30:23.410Z,980.49
2017-12-16T06:31:23.383Z,980.48
2017-12-16T06:32:23.333Z,980.49
2017-12-16T06:33:23.302Z,980.52
2017-12-16T06:34:23.283Z,980.53
2017-12-16T06:35:23.275Z,980.57
2017-12-16T06:36:23.229Z,980.58
2017-12-16T06:37:23.199Z,980.58
2017-12-16T06:38:23.181Z,980.60
2017-12-16T06:39:23.211Z,980.61
2017-12-16T06:40:23.227Z,980.62
2017-12-16T06:41:23.126Z,980.65
2017-12-16T06:42:23.092Z,980.68
2017-12-16T06:43:23.064Z,980.66
2017-12-16T06:44:23.071Z,980.70
2017-12-16T06:45:23.032Z,980.73
2017-12-16T06:46:22.984Z,980.76
2017-12-16T06:47:22.962Z,980.80
2017-12-16T06:48:22.967Z,980.79
2017-12-16T06:49:22.948Z,980.75
2017-12-16T06:50:22.897Z,980.77
2017-12-16T06:51:22.884Z,980.77
2017-12-16T06:52:22.862Z,980.77
2017-12-16T06:53:22.828Z,980.81
2017-12-16T06:54:22.825Z,980.84
2017-12-16T06:55:22.820Z,980.88
2017-12-16T06:56:22.743Z,980.87
2017-12-16T06:57:22.807Z,980.88
2017-12-16T06:58:22.741Z,980.93
2017-12-16T06:59:22.674Z,980.94
2017-12-16T07:00:22.638Z,980.95
2017-12-16T07:01:22.648Z,980.91
2017-12-16T07:02:22.614Z,980.94
2017-12-16T07:03:22.587Z,980.98
2017-12-16T07:04:22.553Z,981.02
2017-12-16T07:05:22.529Z,981.02
2017-12-16T07:06:22.498Z,981.06
2017-12-16T07:07:22.481Z,981.02
2017-12-16T07:08:22.484Z,981.03
2017-12-16T07:09:22.453Z,981.02
2017-12-16T07:10:22.403Z,981.06
2017-12-16T07:11:22.416Z,981.07
2017-12-16T07:12:22.376Z,981.13
2017-12-16T07:13:23.085Z,981.11
2017-12-16T07:19:14.319Z,981.24
2017-12-16T07:20:14.948Z,981.24
2017-12-16T07:22:33.834Z,981.31
2017-12-16T07:23:34.119Z,981.38
2017-12-16T07:24:33.625Z,981.39
2017-12-16T07:25:33.602Z,981.40
2017-12-16T07:26:34.182Z,981.39
2017-12-16T07:27:33.547Z,981.42
2017-12-16T07:28:33.107Z,981.44
2017-12-16T07:29:33.621Z,981.46
2017-12-16T07:30:33.139Z,981.48
2017-12-16T07:31:33.647Z,981.47
2017-12-16T07:32:33.460Z,981.51
2017-12-16T07:33:33.026Z,981.53
2017-12-16T07:34:33.064Z,981.52
2017-12-16T07:35:33.078Z,981.54
2017-12-16T07:36:33.008Z,981.59
2017-12-16T07:37:32.189Z,981.57
2017-12-16T07:38:32.389Z,981.60
2017-12-16T07:39:31.976Z,981.65
2017-12-16T07:40:32.114Z,981.64
2017-12-16T07:41:32.188Z,981.64
2017-12-16T07:42:32.107Z,981.68
2017-12-16T07:43:32.228Z,981.67
2017-12-16T07:44:32.012Z,981.68
2017-12-16T07:45:32.269Z,981.68
2017-12-16T07:46:31.767Z,981.73
2017-12-16T07:47:32.112Z,981.74
2017-12-16T07:48:32.004Z,981.74
2017-12-16T07:49:31.855Z,981.78
2017-12-16T07:50:32.004Z,981.79
2017-12-16T07:51:31.962Z,981.83
2017-12-16T07:52:32.026Z,981.85
2017-12-16T07:53:31.997Z,981.85
2017-12-16T07:54:31.907Z,981.81
2017-12-16T07:55:31.919Z,981.82
2017-12-16T07:56:31.758Z,981.79
2017-12-16T07:57:31.824Z,981.81
2017-12-16T07:58:31.805Z,981.80
2017-12-16T07:59:32.105Z,981.82
2017-12-16T08:00:31.679Z,981.84
2017-12-16T08:01:31.665Z,981.85
2017-12-16T08:02:31.554Z,981.88
2017-12-16T08:03:31.558Z,981.89
2017-12-16T08:04:31.501Z,981.87
2017-12-16T08:05:31.667Z,981.89
2017-12-16T08:06:32.157Z,981.88
2017-12-16T08:07:31.562Z,981.89
2017-12-16T08:08:31.819Z,981.91
2017-12-16T08:09:31.515Z,981.91
2017-12-16T08:10:31.730Z,981.91
2017-12-16T08:11:31.530Z,981.95
2017-12-16T08:12:32.297Z,981.93
2017-12-16T08:13:31.708Z,981.95
2017-12-16T08:14:31.322Z,981.96
2017-12-16T08:15:31.244Z,981.89
2017-12-16T08:16:31.754Z,981.91
2017-12-16T08:17:31.274Z,981.92
2017-12-16T08:18:31.284Z,981.88
2017-12-16T08:19:31.366Z,981.87
2017-12-16T08:20:31.086Z,981.86
2017-12-16T08:21:31.207Z,981.87
2017-12-16T08:22:31.170Z,981.84
2017-12-16T08:23:31.121Z,981.93
2017-12-16T08:24:32.977Z,981.98
2017-12-16T08:25:31.138Z,982.03
2017-12-16T08:26:31.375Z,982.01
2017-12-16T08:27:31.097Z,981.99
2017-12-16T08:28:31.080Z,982.01
2017-12-16T08:29:31.799Z,982.01
2017-12-16T08:30:31.035Z,982.05
2017-12-16T08:31:30.840Z,982.08
2017-12-16T08:33:53.173Z,982.10
2017-12-16T08:34:52.547Z,982.10
2017-12-16T08:35:52.933Z,982.10
2017-12-16T08:36:52.765Z,982.16
2017-12-16T08:37:52.526Z,982.15
2017-12-16T08:38:56.540Z,982.22
2017-12-16T08:39:53.286Z,982.25
2017-12-16T08:40:52.326Z,982.31
2017-12-16T08:41:52.267Z,982.37
2017-12-16T08:42:52.283Z,982.34
2017-12-16T08:43:52.233Z,982.36
2017-12-16T08:44:52.235Z,982.42
2017-12-16T08:45:52.187Z,982.43
2017-12-16T08:46:52.136Z,982.46
2017-12-16T08:47:52.157Z,982.47
2017-12-16T08:48:52.119Z,982.48
2017-12-16T08:49:52.068Z,982.44
2017-12-16T08:50:52.079Z,982.49
2017-12-16T08:51:52.026Z,982.54
2017-12-16T08:52:51.985Z,982.59
2017-12-16T08:53:51.994Z,982.60
2017-12-16T08:54:51.989Z,982.62
2017-12-16T08:55:51.949Z,982.63
2017-12-16T08:56:51.918Z,982.59
2017-12-16T08:57:51.910Z,982.57
2017-12-16T08:58:51.840Z,982.59
2017-12-16T08:59:51.817Z,982.64
2017-12-16T09:00:51.879Z,982.62
2017-12-16T09:01:51.837Z,982.66
2017-12-16T09:02:51.758Z,982.66
2017-12-16T09:03:51.738Z,982.66
2017-12-16T09:04:51.720Z,982.68
2017-12-16T09:05:51.711Z,982.68
2017-12-16T09:06:51.682Z,982.70
2017-12-16T09:07:51.643Z,982.77
2017-12-16T09:08:51.613Z,982.77
2017-12-16T09:09:51.587Z,982.80
2017-12-16T09:10:51.631Z,982.77
2017-12-16T09:11:52.521Z,982.83
2017-12-16T09:12:51.506Z,982.82
2017-12-16T09:13:51.496Z,982.86
2017-12-16T09:14:51.473Z,982.89
2017-12-16T09:15:51.439Z,982.90
2017-12-16T09:16:51.718Z,982.92
2017-12-16T09:17:51.418Z,982.93
2017-12-16T09:18:51.424Z,982.97
2017-12-16T09:19:51.479Z,982.98
2017-12-16T09:20:51.425Z,982.99
2017-12-16T09:21:51.308Z,983.00
2017-12-16T09:22:51.269Z,983.04
2017-12-16T09:23:51.289Z,983.02
2017-12-16T09:24:51.328Z,983.06
2017-12-16T09:25:51.311Z,983.10
2017-12-16T09:26:51.299Z,983.09
2017-12-16T09:27:51.456Z,983.08
2017-12-16T09:28:51.122Z,983.09
2017-12-16T09:29:51.195Z,983.15
2017-12-16T09:30:51.089Z,983.11
2017-12-16T09:31:51.078Z,983.18
2017-12-16T09:32:51.096Z,983.15
2017-12-16T09:33:51.013Z,983.21
2017-12-16T09:34:51.117Z,983.18
2017-12-16T09:35:51.078Z,983.17
2017-12-16T09:36:51.007Z,983.20
2017-12-16T09:37:51.199Z,983.16
2017-12-16T09:38:51.571Z,983.18
2017-12-16T09:39:51.527Z,983.22
2017-12-16T09:40:50.894Z,983.20
2017-12-16T09:41:50.860Z,983.25
2017-12-16T09:42:51.009Z,983.19
2017-12-16T09:43:51.105Z,983.22
2017-12-16T09:44:51.002Z,983.25
2017-12-16T09:45:50.753Z,983.26
2017-12-16T09:46:53.094Z,983.30
2017-12-16T09:49:09.085Z,983.27
2017-12-16T09:49:53.642Z,983.26
2017-12-16T09:50:50.625Z,983.27
2017-12-16T09:51:50.709Z,983.29
2017-12-16T09:52:50.595Z,983.31
2017-12-16T09:53:50.554Z,983.33
2017-12-16T09:54:50.542Z,983.36
2017-12-16T09:55:50.549Z,983.37
2017-12-16T09:56:50.491Z,983.39
2017-12-16T09:57:50.471Z,983.39
2017-12-16T09:58:52.369Z,983.38
2017-12-16T09:59:50.439Z,983.37
2017-12-16T10:00:50.436Z,983.35
2017-12-16T10:01:50.386Z,983.39
2017-12-16T10:02:50.364Z,983.42
2017-12-16T10:03:50.313Z,983.39
2017-12-16T10:04:50.316Z,983.40
2017-12-16T10:05:50.321Z,983.39
2017-12-16T10:06:50.240Z,983.38
2017-12-16T10:07:50.216Z,983.37
2017-12-16T10:08:50.212Z,983.42
2017-12-16T10:09:50.402Z,983.43
2017-12-16T10:10:50.243Z,983.42
2017-12-16T10:11:50.140Z,983.45
2017-12-16T10:12:50.144Z,983.42
2017-12-16T10:13:50.077Z,983.43
2017-12-16T10:14:50.080Z,983.46
2017-12-16T10:15:50.075Z,983.51
2017-12-16T10:16:50.027Z,983.52
2017-12-16T10:17:50.011Z,983.55
2017-12-16T10:18:49.993Z,983.58
2017-12-16T10:19:49.984Z,983.58
2017-12-16T10:20:49.914Z,983.66
2017-12-16T10:21:49.941Z,983.67
2017-12-16T10:22:49.905Z,983.61
2017-12-16T10:23:49.893Z,983.66
2017-12-16T10:24:49.852Z,983.58
2017-12-16T10:25:49.810Z,983.61
2017-12-16T10:26:49.820Z,983.59
2017-12-16T10:27:49.773Z,983.61
2017-12-16T10:28:49.798Z,983.64
2017-12-16T10:29:49.758Z,983.68
2017-12-16T10:30:49.719Z,983.69
2017-12-16T10:31:50.496Z,983.69
2017-12-16T10:32:50.478Z,983.67
2017-12-16T10:33:49.683Z,983.65
2017-12-16T10:34:49.614Z,983.70
2017-12-16T10:35:49.657Z,983.67
2017-12-16T10:36:49.583Z,983.74
2017-12-16T10:37:49.585Z,983.73
2017-12-16T10:38:49.526Z,983.72
2017-12-16T10:39:49.546Z,983.73
2017-12-16T10:40:49.509Z,983.77
2017-12-16T10:41:49.509Z,983.79
2017-12-16T10:42:49.424Z,983.79
2017-12-16T10:43:49.437Z,983.76
2017-12-16T10:44:49.415Z,983.68
2017-12-16T10:45:49.380Z,983.69
2017-12-16T10:46:49.405Z,983.66
2017-12-16T10:47:49.312Z,983.65
2017-12-16T10:48:49.302Z,983.70
2017-12-16T10:49:49.322Z,983.68
2017-12-16T10:50:49.246Z,983.70
2017-12-16T10:51:49.222Z,983.71
2017-12-16T10:52:49.242Z,983.74
2017-12-16T10:53:49.192Z,983.76
2017-12-16T10:54:49.186Z,983.78
2017-12-16T10:55:49.148Z,983.79
2017-12-16T10:56:49.147Z,983.77
2017-12-16T10:57:49.114Z,983.83
2017-12-16T10:58:49.066Z,983.83
2017-12-16T10:59:49.052Z,983.84
2017-12-16T11:00:49.028Z,983.84
2017-12-16T11:01:49.028Z,983.87
2017-12-16T11:02:48.972Z,983.84
2017-12-16T11:03:48.965Z,983.82
2017-12-16T11:04:48.938Z,983.87
2017-12-16T11:05:48.963Z,983.86
2017-12-16T11:06:48.904Z,983.87
2017-12-16T11:07:48.873Z,983.91
2017-12-16T11:08:48.878Z,983.89
2017-12-16T11:09:48.831Z,983.87
2017-12-16T11:10:48.812Z,983.87
2017-12-16T11:11:48.819Z,983.82
2017-12-16T11:12:48.766Z,983.86
2017-12-16T11:13:48.739Z,983.94
2017-12-16T11:14:48.723Z,983.91
2017-12-16T11:15:48.731Z,983.95
2017-12-16T11:16:48.708Z,983.90
2017-12-16T11:17:48.655Z,983.92
2017-12-16T11:18:48.641Z,983.93
2017-12-16T11:19:49.427Z,983.97
2017-12-16T11:20:48.586Z,983.98
2017-12-16T11:21:48.566Z,984.00
2017-12-16T11:22:48.542Z,984.01
2017-12-16T11:23:48.526Z,984.01
2017-12-16T11:24:48.497Z,983.95
2017-12-16T11:25:48.476Z,983.94
2017-12-16T11:26:48.471Z,983.93
2017-12-16T11:27:48.421Z,983.96
2017-12-16T11:28:48.411Z,983.96
2017-12-16T11:29:48.422Z,984.07
2017-12-16T11:30:48.370Z,984.12
2017-12-16T11:31:48.333Z,984.15
2017-12-16T11:32:48.317Z,984.13
2017-12-16T11:33:48.337Z,984.10
2017-12-16T11:34:48.270Z,984.12
2017-12-16T11:35:48.298Z,984.16
2017-12-16T11:36:48.247Z,984.08
2017-12-16T11:37:48.248Z,984.07
2017-12-16T11:38:48.174Z,984.09
2017-12-16T11:39:48.176Z,984.18
2017-12-16T11:40:48.166Z,984.22
2017-12-16T11:41:48.228Z,984.14
2017-12-16T11:42:48.098Z,984.12
2017-12-16T11:43:48.128Z,984.18
2017-12-16T11:44:48.076Z,984.19
2017-12-16T11:45:48.057Z,984.19
2017-12-16T11:46:48.036Z,984.21
2017-12-16T11:47:48.018Z,984.25
2017-12-16T11:48:48.007Z,984.24
2017-12-16T11:49:47.942Z,984.28
2017-12-16T11:50:47.949Z,984.28
2017-12-16T11:51:48.026Z,984.29
2017-12-16T11:52:47.889Z,984.34
2017-12-16T11:53:47.856Z,984.30
2017-12-16T11:54:47.875Z,984.29
2017-12-16T11:55:47.849Z,984.29
2017-12-16T11:56:47.816Z,984.31
2017-12-16T11:57:47.808Z,984.31
2017-12-16T11:58:47.748Z,984.27
2017-12-16T11:59:47.752Z,984.40
2017-12-16T12:00:47.730Z,984.32
2017-12-16T12:01:47.715Z,984.29
2017-12-16T12:02:47.693Z,984.24
2017-12-16T12:03:47.671Z,984.28
2017-12-16T12:04:47.653Z,984.30
2017-12-16T12:05:47.624Z,984.30
2017-12-16T12:06:47.594Z,984.32
2017-12-16T12:07:47.578Z,984.33
2017-12-16T12:08:47.538Z,984.34
2017-12-16T12:09:47.603Z,984.39
2017-12-16T12:10:47.528Z,984.42
2017-12-16T12:11:47.492Z,984.66
2017-12-16T12:12:47.589Z,984.68
2017-12-16T12:13:47.615Z,984.46
2017-12-16T12:14:47.424Z,984.54
2017-12-16T12:15:47.392Z,984.53
2017-12-16T12:16:47.435Z,984.57
2017-12-16T12:17:47.383Z,984.55
2017-12-16T12:18:47.329Z,984.74
2017-12-16T12:19:47.326Z,984.73
2017-12-16T12:20:47.318Z,984.70
2017-12-16T12:21:47.273Z,984.63
2017-12-16T12:22:47.263Z,984.57
2017-12-16T12:23:47.299Z,984.61
2017-12-16T12:24:47.379Z,984.62
2017-12-16T12:25:47.180Z,984.67
2017-12-16T12:26:47.202Z,984.70
2017-12-16T12:27:47.152Z,984.68
2017-12-16T12:28:47.166Z,984.56
2017-12-16T12:29:47.128Z,984.42
2017-12-16T12:30:47.141Z,984.37
2017-12-16T12:31:47.111Z,984.35
2017-12-16T12:32:47.056Z,984.35
2017-12-16T12:33:47.075Z,984.39
2017-12-16T12:34:47.078Z,984.37
2017-12-16T12:35:46.993Z,984.41
2017-12-16T12:36:46.984Z,984.45
2017-12-16T12:37:47.122Z,984.51
2017-12-16T12:38:47.076Z,984.48
2017-12-16T12:39:47.488Z,984.77
2017-12-16T12:40:46.907Z,984.93
2017-12-16T12:41:46.947Z,984.92
2017-12-16T12:42:46.880Z,984.85
2017-12-16T12:43:46.844Z,984.91
2017-12-16T12:44:46.838Z,984.52
2017-12-16T12:45:46.811Z,984.50
2017-12-16T12:46:46.778Z,984.51
2017-12-16T12:47:46.769Z,984.51